IQT weather

Coronel FAP Francisco Secada Vignetta International Airport
Iquitos, Loreto Region, PerĂº

Public forecast

Using degrees Celsius for public forecast. Weather courtesy of forecast.io.

Current aviation weather report (METAR) for Coronel FAP Francisco Secada Vignetta International Airport

Retrieved 2020/04/07 08:00 UTC (12 minutes ago):

SPQT 070800Z 20003KT 160V240 8000 -RA BKN010 FEW020CB OVC070 24/23 Q1012 NOSIG RMK PP024

Aviation forecast (TAF) for Coronel FAP Francisco Secada Vignetta International Airport

Retrieved 2020/04/07 06:33 UTC (2 hours ago):

TAF SPQT 070500Z 0706/0806 VRB02KT 9999 SCT015 BKN100 TX32/0718Z TN24/0711Z TEMPO 0706/0709 09010KT 3000 TSRA BKN010 FEW025CB BKN080 TEMPO 0709/0713 7000 RADZ BKN005 BKN080 BECMG 0713/0716 06005KT SCT015 BKN100 TEMPO 0718/0722 36015KT 5000 RADZ BKN015 FEW025CB BKN070